Time;durP1;ratioP1;P1;durP2;ratioP2;P2;SDS_P1;SDS_P2;PMS_P1;PMS_P2;Temp;Humidity;BMP_temperature;BMP_pressure;BME280_temperature;BME280_humidity;BME280_pressure;Samples;Min_cycle;Max_cycle;Signal;HPM_P1;HPM_P2
2023/05/26 00:00:15;;;;;;;;;;;11.00;72.20;;;;;;5094625;28;19912;-25
2023/05/26 00:02:41;;;;;;;;;;;11.00;71.80;;;;;;5094714;28;19912;-26
2023/05/26 00:05:07;;;;;;;;;;;10.90;71.80;;;;;;5094620;28;20010;-30
2023/05/26 00:07:37;;;;;;;;;;;10.90;72.00;;;;;;5094559;28;19912;-28
2023/05/26 00:10:02;;;;;;;;;;;10.80;72.10;;;;;;5094462;28;19931;-28
2023/05/26 00:12:28;;;;;;;;;;;10.80;72.20;;;;;;5094488;28;20379;-26
2023/05/26 00:14:53;;;;;;;;;;;10.70;72.30;;;;;;5094431;28;20340;-28
2023/05/26 00:17:19;;;;;;;;;;;10.70;72.40;;;;;;5094364;28;19915;-26
2023/05/26 00:19:45;;;;;;;;;;;10.70;72.40;;;;;;5094270;28;19915;-32
2023/05/26 00:22:12;;;;;;;;;;;10.70;72.50;;;;;;5094521;28;19912;-26
2023/05/26 00:24:38;;;;;;;;;;;10.60;72.70;;;;;;5094312;28;20402;-26
2023/05/26 00:27:03;;;;;;;;;;;10.60;72.80;;;;;;5093910;28;19962;-27
2023/05/26 00:29:30;;;;;;;;;;;10.50;72.80;;;;;;5076038;28;19957;-26
2023/05/26 00:31:56;;;;;;;;;;;10.50;72.90;;;;;;5094091;28;19940;-26
2023/05/26 00:34:21;;;;;;;;;;;10.50;72.90;;;;;;5094122;28;19981;-25
2023/05/26 00:36:47;;;;;;;;;;;10.40;72.90;;;;;;5093987;28;20283;-27
2023/05/26 00:39:13;;;;;;;;;;;10.50;73.40;;;;;;5093937;28;20279;-27
2023/05/26 00:41:38;;;;;;;;;;;10.40;73.40;;;;;;5075733;28;19908;-26
2023/05/26 00:44:04;;;;;;;;;;;10.40;73.30;;;;;;5093772;28;19915;-28
2023/05/26 00:46:30;;;;;;;;;;;10.40;73.30;;;;;;5093649;28;20386;-31
2023/05/26 00:48:55;;;;;;;;;;;10.40;73.20;;;;;;5075501;28;19925;-31
2023/05/26 00:51:22;;;;;;;;;;;10.40;73.10;;;;;;5075448;28;20284;-29
2023/05/26 00:53:48;;;;;;;;;;;10.40;73.10;;;;;;5093746;28;19961;-29
2023/05/26 00:56:15;;;;;;;;;;;10.40;73.20;;;;;;5093529;28;19908;-26
2023/05/26 00:58:44;;;;;;;;;;;10.30;73.70;;;;;;5093547;28;20340;-25
2023/05/26 01:01:09;;;;;;;;;;;10.30;73.50;;;;;;5093449;28;19915;-29
2023/05/26 01:03:37;;;;;;;;;;;10.30;73.50;;;;;;5093426;28;19908;-28
2023/05/26 01:06:02;;;;;;;;;;;10.30;73.50;;;;;;5093391;28;19908;-27
2023/05/26 01:08:28;;;;;;;;;;;10.30;73.50;;;;;;5093257;28;20434;-27
2023/05/26 01:10:55;;;;;;;;;;;10.30;73.60;;;;;;5093267;28;19954;-31
2023/05/26 01:13:22;;;;;;;;;;;10.30;73.50;;;;;;5093219;28;20352;-28
2023/05/26 01:15:54;;;;;;;;;;;10.20;73.70;;;;;;5093200;28;19908;-25
2023/05/26 01:18:36;;;;;;;;;;;10.20;73.90;;;;;;5074842;28;19963;-24
2023/05/26 01:21:08;;;;;;;;;;;10.10;74.00;;;;;;5093161;28;19995;-26
2023/05/26 01:23:52;;;;;;;;;;;10.10;74.00;;;;;;5092964;28;19924;-25
2023/05/26 01:26:36;;;;;;;;;;;10.00;74.10;;;;;;5092821;28;20371;-27
2023/05/26 01:29:08;;;;;;;;;;;10.00;74.20;;;;;;5092897;28;20011;-34
2023/05/26 01:31:33;;;;;;;;;;;10.00;75.00;;;;;;5092976;28;20312;-30
2023/05/26 01:34:00;;;;;;;;;;;9.90;74.40;;;;;;5092788;28;19908;-26
2023/05/26 01:36:27;;;;;;;;;;;9.90;74.40;;;;;;5092875;28;19908;-25
2023/05/26 01:38:52;;;;;;;;;;;9.90;74.40;;;;;;5092136;28;19915;-28
2023/05/26 01:41:21;;;;;;;;;;;9.90;74.40;;;;;;5092768;28;20283;-26
2023/05/26 01:43:59;;;;;;;;;;;9.90;74.30;;;;;;5092575;28;19908;-26
2023/05/26 01:46:30;;;;;;;;;;;9.90;74.40;;;;;;5092556;28;19923;-26
2023/05/26 01:48:57;;;;;;;;;;;9.90;74.50;;;;;;5092527;28;19908;-27
2023/05/26 01:51:23;;;;;;;;;;;9.90;74.40;;;;;;5092590;28;19919;-28
2023/05/26 01:53:51;;;;;;;;;;;9.90;74.40;;;;;;5074137;28;19908;-26
2023/05/26 01:56:18;;;;;;;;;;;9.90;74.50;;;;;;5092453;28;19908;-28
2023/05/26 01:58:45;;;;;;;;;;;9.90;74.50;;;;;;5092559;28;19915;-27
2023/05/26 02:01:11;;;;;;;;;;;9.80;74.50;;;;;;5092385;28;19908;-25
2023/05/26 02:03:36;;;;;;;;;;;9.80;74.80;;;;;;5092419;28;19909;-26
2023/05/26 02:06:02;;;;;;;;;;;9.80;74.90;;;;;;5092305;28;19908;-25
2023/05/26 02:08:27;;;;;;;;;;;9.80;75.00;;;;;;5092270;28;20433;-30
2023/05/26 02:10:53;;;;;;;;;;;9.70;75.00;;;;;;5092414;28;20308;-29
2023/05/26 02:13:18;;;;;;;;;;;9.70;75.00;;;;;;5092217;28;19930;-26
2023/05/26 02:15:44;;;;;;;;;;;9.70;75.20;;;;;;5092301;28;19915;-27
2023/05/26 02:18:10;;;;;;;;;;;9.70;75.20;;;;;;5092110;28;19908;-26
2023/05/26 02:20:36;;;;;;;;;;;9.70;75.20;;;;;;5092112;28;20169;-26
2023/05/26 02:23:02;;;;;;;;;;;9.70;75.40;;;;;;5091755;28;20439;-27
2023/05/26 02:25:27;;;;;;;;;;;9.60;75.40;;;;;;5092030;28;19912;-27
2023/05/26 02:27:53;;;;;;;;;;;9.60;75.60;;;;;;5092083;28;20318;-27
2023/05/26 02:30:18;;;;;;;;;;;9.60;75.80;;;;;;5092036;28;20265;-27
2023/05/26 02:32:44;;;;;;;;;;;9.50;75.90;;;;;;5092047;28;19935;-26
2023/05/26 02:35:09;;;;;;;;;;;9.40;76.00;;;;;;5091966;28;19961;-26
2023/05/26 02:37:35;;;;;;;;;;;9.40;76.00;;;;;;5091947;28;20011;-25
2023/05/26 02:40:00;;;;;;;;;;;9.40;76.10;;;;;;5092024;28;19916;-28
2023/05/26 02:42:26;;;;;;;;;;;9.40;76.10;;;;;;5091969;28;19912;-26
2023/05/26 02:44:51;;;;;;;;;;;9.40;76.10;;;;;;5091997;28;19934;-25
2023/05/26 02:47:17;;;;;;;;;;;9.40;76.10;;;;;;5091912;28;19969;-28
2023/05/26 02:49:42;;;;;;;;;;;9.40;76.10;;;;;;5093419;28;20030;-26
2023/05/26 02:52:08;;;;;;;;;;;9.40;76.10;;;;;;5095956;28;19965;-31
2023/05/26 02:54:33;;;;;;;;;;;9.40;76.30;;;;;;5096133;28;19920;-27
2023/05/26 02:56:59;;;;;;;;;;;9.40;76.30;;;;;;5095856;28;19918;-27
2023/05/26 02:59:24;;;;;;;;;;;9.30;76.30;;;;;;5096013;28;19946;-29
2023/05/26 03:01:50;;;;;;;;;;;9.30;76.20;;;;;;5095870;28;19912;-27
2023/05/26 03:04:15;;;;;;;;;;;9.30;77.00;;;;;;5095752;28;19916;-27
2023/05/26 03:06:41;;;;;;;;;;;9.30;76.40;;;;;;5095662;28;19927;-26
2023/05/26 03:09:07;;;;;;;;;;;9.30;76.50;;;;;;5095655;28;19919;-27
2023/05/26 03:11:33;;;;;;;;;;;9.30;76.70;;;;;;5095617;28;20251;-29
2023/05/26 03:13:58;;;;;;;;;;;9.30;76.60;;;;;;5095948;28;20257;-28
2023/05/26 03:16:24;;;;;;;;;;;9.20;76.60;;;;;;5095757;28;19919;-29
2023/05/26 03:18:50;;;;;;;;;;;9.20;76.80;;;;;;5095739;28;19912;-26
2023/05/26 03:21:16;;;;;;;;;;;9.20;76.80;;;;;;5095527;28;20365;-26
2023/05/26 03:23:42;;;;;;;;;;;9.20;76.80;;;;;;5095407;28;19954;-28
2023/05/26 03:26:08;;;;;;;;;;;9.20;76.90;;;;;;5095598;28;20330;-29
2023/05/26 03:28:33;;;;;;;;;;;9.20;77.00;;;;;;5095454;28;20319;-30
2023/05/26 03:30:59;;;;;;;;;;;9.10;77.20;;;;;;5095434;28;20368;-29
2023/05/26 03:33:25;;;;;;;;;;;9.10;77.10;;;;;;5095361;28;20006;-26
2023/05/26 03:35:51;;;;;;;;;;;9.10;77.30;;;;;;5095349;28;19951;-28
2023/05/26 03:38:16;;;;;;;;;;;9.10;77.30;;;;;;5095122;28;19919;-27
2023/05/26 03:40:42;;;;;;;;;;;9.10;77.40;;;;;;5095443;28;19925;-26
2023/05/26 03:43:07;;;;;;;;;;;9.10;77.40;;;;;;5095122;28;20295;-27
2023/05/26 03:45:33;;;;;;;;;;;9.10;77.50;;;;;;5094984;28;20422;-27
2023/05/26 03:47:58;;;;;;;;;;;9.00;77.40;;;;;;5076644;28;19916;-27
2023/05/26 03:50:24;;;;;;;;;;;9.00;77.50;;;;;;5094981;28;19912;-32
2023/05/26 03:52:49;;;;;;;;;;;9.00;78.20;;;;;;5094887;28;20368;-33
2023/05/26 03:55:17;;;;;;;;;;;9.00;77.50;;;;;;5094838;28;19912;-27
2023/05/26 03:57:43;;;;;;;;;;;9.00;77.60;;;;;;5094943;28;19912;-29
2023/05/26 04:00:10;;;;;;;;;;;9.00;77.80;;;;;;5094688;28;19913;-27
2023/05/26 04:02:35;;;;;;;;;;;9.00;77.80;;;;;;5094023;28;19938;-31
2023/05/26 04:05:01;;;;;;;;;;;9.00;78.00;;;;;;5094485;28;19916;-31
2023/05/26 04:07:27;;;;;;;;;;;9.00;78.00;;;;;;5076355;28;19916;-33
2023/05/26 04:09:52;;;;;;;;;;;9.00;78.00;;;;;;5094555;28;19912;-39
2023/05/26 04:12:18;;;;;;;;;;;9.00;78.00;;;;;;5094440;28;19912;-37
2023/05/26 04:14:43;;;;;;;;;;;9.00;78.10;;;;;;5094454;28;19912;-32
2023/05/26 04:17:09;;;;;;;;;;;9.00;78.00;;;;;;5094413;28;19935;-31
2023/05/26 04:19:34;;;;;;;;;;;9.00;78.20;;;;;;5094560;28;19966;-29
2023/05/26 04:22:00;;;;;;;;;;;9.00;78.00;;;;;;5094202;28;20368;-28
2023/05/26 04:24:26;;;;;;;;;;;9.00;78.30;;;;;;5093942;28;19926;-33
2023/05/26 04:26:52;;;;;;;;;;;9.00;78.40;;;;;;5094457;28;19939;-27
2023/05/26 04:29:20;;;;;;;;;;;9.00;78.40;;;;;;5094155;28;20309;-33
2023/05/26 04:31:46;;;;;;;;;;;9.10;78.20;;;;;;5094175;28;19912;-27
2023/05/26 04:34:11;;;;;;;;;;;9.10;78.40;;;;;;5094667;28;19916;-33
2023/05/26 04:36:39;;;;;;;;;;;9.10;78.30;;;;;;5094124;28;19923;-28
2023/05/26 04:39:07;;;;;;;;;;;9.10;78.20;;;;;;5093923;28;20007;-26
2023/05/26 04:41:33;;;;;;;;;;;9.10;78.20;;;;;;5094239;28;19912;-32
2023/05/26 04:44:01;;;;;;;;;;;9.20;78.30;;;;;;5093930;28;19965;-28
2023/05/26 04:46:28;;;;;;;;;;;9.20;78.50;;;;;;5093777;28;19918;-32
2023/05/26 04:48:56;;;;;;;;;;;9.20;78.50;;;;;;5094056;28;20379;-28
2023/05/26 04:51:22;;;;;;;;;;;9.20;78.40;;;;;;5093705;28;20332;-34
2023/05/26 04:53:48;;;;;;;;;;;9.20;78.60;;;;;;5093753;28;19951;-29
2023/05/26 04:56:13;;;;;;;;;;;9.20;78.50;;;;;;5093726;28;19955;-27
2023/05/26 04:58:39;;;;;;;;;;;9.30;78.40;;;;;;5093593;28;19920;-29
2023/05/26 05:01:04;;;;;;;;;;;9.30;78.30;;;;;;5093819;28;19912;-26
2023/05/26 05:03:32;;;;;;;;;;;9.30;78.10;;;;;;5093513;28;19912;-30
2023/05/26 05:05:57;;;;;;;;;;;9.40;78.00;;;;;;5093513;28;19912;-28
2023/05/26 05:08:23;;;;;;;;;;;9.40;78.00;;;;;;5093229;28;20133;-42
2023/05/26 05:10:48;;;;;;;;;;;9.50;78.00;;;;;;5074116;28;20371;-28
2023/05/26 05:13:14;;;;;;;;;;;9.50;77.90;;;;;;5091729;28;19912;-27
2023/05/26 05:15:39;;;;;;;;;;;9.50;78.00;;;;;;5093256;28;19943;-30
2023/05/26 05:18:05;;;;;;;;;;;9.60;77.90;;;;;;5093482;28;19935;-30
2023/05/26 05:20:30;;;;;;;;;;;9.60;77.90;;;;;;5093179;28;19916;-32
2023/05/26 05:22:56;;;;;;;;;;;9.60;77.80;;;;;;5093037;28;19923;-31
2023/05/26 05:25:21;;;;;;;;;;;9.70;77.90;;;;;;5093054;28;19912;-29
2023/05/26 05:27:47;;;;;;;;;;;9.70;77.70;;;;;;5092976;28;19920;-30
2023/05/26 05:30:12;;;;;;;;;;;9.70;77.80;;;;;;5092962;28;19912;-44
2023/05/26 05:32:38;;;;;;;;;;;9.80;77.80;;;;;;5092990;28;19913;-28
2023/05/26 05:35:04;;;;;;;;;;;9.80;77.80;;;;;;5092939;28;19966;-27
2023/05/26 05:37:30;;;;;;;;;;;9.80;77.80;;;;;;5092857;28;20362;-38
2023/05/26 05:39:56;;;;;;;;;;;9.90;77.70;;;;;;5092983;28;19916;-28
2023/05/26 05:42:22;;;;;;;;;;;9.90;77.70;;;;;;5092794;28;20003;-26
2023/05/26 05:44:47;;;;;;;;;;;10.00;77.70;;;;;;5074500;28;19960;-29
2023/05/26 05:47:12;;;;;;;;;;;10.10;77.50;;;;;;5092693;28;19916;-25
2023/05/26 05:49:38;;;;;;;;;;;10.20;77.20;;;;;;5092720;28;19913;-26
2023/05/26 05:52:04;;;;;;;;;;;10.20;76.90;;;;;;5092521;28;20364;-26
2023/05/26 05:54:30;;;;;;;;;;;10.30;76.90;;;;;;5092610;28;20394;-39
2023/05/26 05:56:55;;;;;;;;;;;10.30;76.80;;;;;;5092566;28;19912;-29
2023/05/26 05:59:21;;;;;;;;;;;10.40;76.70;;;;;;5092438;28;19916;-27
2023/05/26 06:01:46;;;;;;;;;;;10.50;76.50;;;;;;5092507;28;19919;-31
2023/05/26 06:04:12;;;;;;;;;;;10.60;76.30;;;;;;5092365;28;20395;-33
2023/05/26 06:06:37;;;;;;;;;;;10.60;76.00;;;;;;5092241;28;19912;-38
2023/05/26 06:09:03;;;;;;;;;;;10.70;75.90;;;;;;5092307;28;19912;-28
2023/05/26 06:11:28;;;;;;;;;;;10.70;75.80;;;;;;5092359;28;19962;-27
2023/05/26 06:13:54;;;;;;;;;;;10.80;75.60;;;;;;5092390;28;20298;-27
2023/05/26 06:16:20;;;;;;;;;;;10.90;75.50;;;;;;5092262;28;19913;-27
2023/05/26 06:18:45;;;;;;;;;;;11.00;75.30;;;;;;5092541;28;19912;-28
2023/05/26 06:21:11;;;;;;;;;;;11.00;75.20;;;;;;5092130;28;20433;-31
2023/05/26 06:23:36;;;;;;;;;;;10.90;75.00;;;;;;5092130;28;19955;-28
2023/05/26 06:26:02;;;;;;;;;;;10.90;75.00;;;;;;5091800;28;19965;-26
2023/05/26 06:28:27;;;;;;;;;;;11.00;75.00;;;;;;5092232;28;19927;-29
2023/05/26 06:30:53;;;;;;;;;;;11.00;75.00;;;;;;5092170;28;20010;-28
2023/05/26 06:33:18;;;;;;;;;;;11.00;74.90;;;;;;5092084;28;19919;-27
2023/05/26 06:35:44;;;;;;;;;;;11.00;74.70;;;;;;5092052;28;19912;-28
2023/05/26 06:38:09;;;;;;;;;;;11.10;74.50;;;;;;5092234;28;19912;-27
2023/05/26 06:40:35;;;;;;;;;;;11.10;74.00;;;;;;5073969;28;19912;-28
2023/05/26 06:43:00;;;;;;;;;;;11.10;73.90;;;;;;5092062;28;19919;-27
2023/05/26 06:45:26;;;;;;;;;;;11.20;73.60;;;;;;5092345;28;19912;-32
2023/05/26 06:47:51;;;;;;;;;;;11.30;73.30;;;;;;5091813;28;20333;-27
2023/05/26 06:50:16;;;;;;;;;;;11.30;73.10;;;;;;5092077;28;20368;-28
2023/05/26 06:52:42;;;;;;;;;;;11.30;73.20;;;;;;5091922;28;19957;-25
2023/05/26 06:55:08;;;;;;;;;;;11.40;72.50;;;;;;5091783;28;20356;-28
2023/05/26 06:57:33;;;;;;;;;;;11.40;72.80;;;;;;5091307;28;20403;-26
2023/05/26 06:59:59;;;;;;;;;;;11.50;72.50;;;;;;5090451;28;19919;-31
2023/05/26 07:02:24;;;;;;;;;;;11.60;72.50;;;;;;5091064;28;20383;-30
2023/05/26 07:04:50;;;;;;;;;;;11.80;72.50;;;;;;5090133;28;19912;-29
2023/05/26 07:07:16;;;;;;;;;;;11.90;71.60;;;;;;5072890;28;20395;-27
2023/05/26 07:09:41;;;;;;;;;;;12.00;71.10;;;;;;5091615;28;19923;-27
2023/05/26 07:12:07;;;;;;;;;;;12.00;71.40;;;;;;5091249;28;19919;-26
2023/05/26 07:14:32;;;;;;;;;;;12.10;71.20;;;;;;5091646;28;20367;-27
2023/05/26 07:16:58;;;;;;;;;;;12.20;71.10;;;;;;5091601;28;20007;-35
2023/05/26 07:19:23;;;;;;;;;;;12.40;70.10;;;;;;5091632;28;19915;-27
2023/05/26 07:21:49;;;;;;;;;;;12.40;69.60;;;;;;5091595;28;19912;-26
2023/05/26 07:24:14;;;;;;;;;;;12.50;68.80;;;;;;5091538;28;20333;-26
2023/05/26 07:26:40;;;;;;;;;;;12.50;69.00;;;;;;5091448;28;19912;-30
2023/05/26 07:29:05;;;;;;;;;;;12.60;69.60;;;;;;5091692;28;19955;-27
2023/05/26 07:31:31;;;;;;;;;;;12.60;69.00;;;;;;5091680;28;20322;-27
2023/05/26 07:33:56;;;;;;;;;;;12.60;68.60;;;;;;5091896;28;19919;-30
2023/05/26 07:36:21;;;;;;;;;;;12.50;68.90;;;;;;5073812;28;19912;-28
2023/05/26 07:38:47;;;;;;;;;;;12.50;68.90;;;;;;5095166;28;19912;-27
2023/05/26 07:41:12;;;;;;;;;;;12.40;69.00;;;;;;5095180;28;19961;-27
2023/05/26 07:43:38;;;;;;;;;;;12.40;69.30;;;;;;5095135;28;20395;-26
2023/05/26 07:46:03;;;;;;;;;;;12.40;69.20;;;;;;5095051;28;19912;-28
2023/05/26 07:48:30;;;;;;;;;;;12.40;69.20;;;;;;5094814;28;19916;-28
2023/05/26 07:50:55;;;;;;;;;;;12.50;69.30;;;;;;5095039;28;19912;-26
2023/05/26 07:53:20;;;;;;;;;;;12.60;69.20;;;;;;5094852;28;19916;-29
2023/05/26 07:55:46;;;;;;;;;;;12.60;69.00;;;;;;5094799;28;19912;-26
2023/05/26 07:58:12;;;;;;;;;;;12.70;69.00;;;;;;5094593;28;19918;-33
2023/05/26 08:00:38;;;;;;;;;;;12.80;68.30;;;;;;5094928;28;19985;-29
2023/05/26 08:03:04;;;;;;;;;;;12.90;68.60;;;;;;5094632;28;19912;-29
2023/05/26 08:05:30;;;;;;;;;;;13.00;67.90;;;;;;5094782;28;19958;-26
2023/05/26 08:07:56;;;;;;;;;;;13.00;67.90;;;;;;5094621;28;19923;-27
2023/05/26 08:10:21;;;;;;;;;;;13.10;68.00;;;;;;5094387;28;19912;-31
2023/05/26 08:12:47;;;;;;;;;;;13.20;67.90;;;;;;5094560;28;19912;-26
2023/05/26 08:15:14;;;;;;;;;;;13.20;67.70;;;;;;5094586;28;19957;-27
2023/05/26 08:17:40;;;;;;;;;;;13.30;67.60;;;;;;5094435;28;19919;-27
2023/05/26 08:20:06;;;;;;;;;;;13.40;67.30;;;;;;5094287;28;19912;-26
2023/05/26 08:22:31;;;;;;;;;;;13.50;67.40;;;;;;5094136;28;20253;-27
2023/05/26 08:24:57;;;;;;;;;;;13.50;67.30;;;;;;5094256;28;20029;-29
2023/05/26 08:27:23;;;;;;;;;;;13.50;66.20;;;;;;5094182;28;20358;-27
2023/05/26 08:29:49;;;;;;;;;;;13.60;66.10;;;;;;5094190;28;19912;-29
2023/05/26 08:32:14;;;;;;;;;;;13.60;65.10;;;;;;5094069;28;19919;-35
2023/05/26 08:34:42;;;;;;;;;;;13.60;65.50;;;;;;5094208;28;19919;-30
2023/05/26 08:37:11;;;;;;;;;;;13.60;65.50;;;;;;5094112;28;19912;-27
2023/05/26 08:39:37;;;;;;;;;;;13.60;64.80;;;;;;5094078;28;19918;-27
2023/05/26 08:42:05;;;;;;;;;;;13.60;63.90;;;;;;5075623;28;20354;-30
2023/05/26 08:44:31;;;;;;;;;;;13.60;64.40;;;;;;5094061;28;19974;-27
2023/05/26 08:46:58;;;;;;;;;;;13.70;64.90;;;;;;5093650;28;19919;-26
2023/05/26 08:49:24;;;;;;;;;;;13.70;64.60;;;;;;5093654;28;19934;-27
2023/05/26 08:52:10;;;;;;;;;;;13.80;65.10;;;;;;5093700;28;19912;-28
2023/05/26 08:54:35;;;;;;;;;;;13.90;64.90;;;;;;5093043;28;19962;-26
2023/05/26 08:57:03;;;;;;;;;;;14.00;64.70;;;;;;5093658;28;19916;-28
2023/05/26 08:59:28;;;;;;;;;;;14.10;64.70;;;;;;5093878;28;19919;-33
2023/05/26 09:01:55;;;;;;;;;;;14.10;63.30;;;;;;5093795;28;19912;-27
2023/05/26 09:04:20;;;;;;;;;;;14.10;63.80;;;;;;5093648;28;19980;-30
2023/05/26 09:06:46;;;;;;;;;;;14.20;62.80;;;;;;5093565;28;20375;-30
2023/05/26 09:09:13;;;;;;;;;;;14.20;61.70;;;;;;5093437;28;19912;-30
2023/05/26 09:11:40;;;;;;;;;;;14.20;62.80;;;;;;5093503;28;19948;-28
2023/05/26 09:14:06;;;;;;;;;;;14.30;61.20;;;;;;5093250;28;19919;-29
2023/05/26 09:16:31;;;;;;;;;;;14.30;61.60;;;;;;5093271;28;20321;-36
2023/05/26 09:19:00;;;;;;;;;;;14.30;60.90;;;;;;5093264;28;19919;-26
2023/05/26 09:21:26;;;;;;;;;;;14.30;61.10;;;;;;5093038;28;19912;-35
2023/05/26 09:23:56;;;;;;;;;;;14.40;61.30;;;;;;5074761;28;20271;-27
2023/05/26 09:26:29;;;;;;;;;;;14.40;60.60;;;;;;5092971;28;19912;-27
2023/05/26 09:28:54;;;;;;;;;;;14.50;61.20;;;;;;5092992;28;19916;-27
2023/05/26 09:31:20;;;;;;;;;;;14.60;61.30;;;;;;5092935;28;19969;-27
2023/05/26 09:33:46;;;;;;;;;;;14.60;60.10;;;;;;5093027;28;19912;-41
2023/05/26 09:36:12;;;;;;;;;;;14.70;59.90;;;;;;5092829;28;19919;-28
2023/05/26 09:38:40;;;;;;;;;;;14.70;58.70;;;;;;5092834;28;19913;-33
2023/05/26 09:41:06;;;;;;;;;;;14.70;59.20;;;;;;5092748;28;19912;-27
2023/05/26 09:43:33;;;;;;;;;;;14.70;59.70;;;;;;5092796;28;19920;-28
2023/05/26 09:45:58;;;;;;;;;;;14.80;60.00;;;;;;5092842;28;19914;-26
2023/05/26 09:48:24;;;;;;;;;;;14.90;60.00;;;;;;5074643;28;20444;-27
2023/05/26 09:50:50;;;;;;;;;;;15.00;58.30;;;;;;5092566;28;19919;-28
2023/05/26 09:53:16;;;;;;;;;;;15.10;57.70;;;;;;5074112;28;19919;-27
2023/05/26 09:55:43;;;;;;;;;;;15.20;57.40;;;;;;5092499;28;19912;-27
2023/05/26 09:58:10;;;;;;;;;;;15.20;58.10;;;;;;5092607;28;19912;-29
2023/05/26 10:00:36;;;;;;;;;;;15.20;57.80;;;;;;5092051;28;19912;-31
2023/05/26 10:03:03;;;;;;;;;;;15.30;57.30;;;;;;5092532;28;19995;-33
2023/05/26 10:05:31;;;;;;;;;;;15.30;57.10;;;;;;5092593;28;20010;-27
2023/05/26 10:07:57;;;;;;;;;;;15.40;57.10;;;;;;5092412;28;19916;-27
2023/05/26 10:10:23;;;;;;;;;;;15.40;57.20;;;;;;5092197;28;20296;-27
2023/05/26 10:12:48;;;;;;;;;;;15.50;57.10;;;;;;5092318;28;19912;-27
2023/05/26 10:15:14;;;;;;;;;;;15.50;57.60;;;;;;5092231;28;19912;-29
2023/05/26 10:17:39;;;;;;;;;;;15.60;56.70;;;;;;5092206;28;20371;-27
2023/05/26 10:20:05;;;;;;;;;;;15.60;56.30;;;;;;5073891;28;20368;-26
2023/05/26 10:23:00;;;;;;;;;;;15.60;56.20;;;;;;5092257;28;20073;-31
2023/05/26 10:25:31;;;;;;;;;;;15.70;56.90;;;;;;5070434;28;20014;-29
2023/05/26 10:28:16;;;;;;;;;;;15.80;57.10;;;;;;5092660;28;19938;-27
2023/05/26 10:30:42;;;;;;;;;;;15.90;56.80;;;;;;5092121;28;20407;-32
2023/05/26 10:33:14;;;;;;;;;;;16.00;57.10;;;;;;5092136;28;20445;-28
2023/05/26 10:35:54;;;;;;;;;;;16.10;56.90;;;;;;5092165;28;20007;-29
2023/05/26 10:38:25;;;;;;;;;;;16.20;55.40;;;;;;5091997;28;20390;-29
2023/05/26 10:40:50;;;;;;;;;;;16.30;56.20;;;;;;5073782;28;19961;-27
2023/05/26 10:43:21;;;;;;;;;;;16.40;55.80;;;;;;5092056;28;20003;-31
2023/05/26 10:45:50;;;;;;;;;;;16.50;54.70;;;;;;5091998;28;19920;-31
2023/05/26 10:48:16;;;;;;;;;;;16.50;54.10;;;;;;5091846;28;19923;-29
2023/05/26 10:50:54;;;;;;;;;;;16.60;52.30;;;;;;5092006;28;20292;-29
2023/05/26 10:53:23;;;;;;;;;;;16.60;50.90;;;;;;5091955;28;19935;-28
2023/05/26 10:55:53;;;;;;;;;;;16.60;51.80;;;;;;5092099;28;19919;-30
2023/05/26 10:58:29;;;;;;;;;;;16.60;51.30;;;;;;5092088;28;19923;-28
2023/05/26 11:00:55;;;;;;;;;;;16.70;52.50;;;;;;5091983;28;19957;-28
2023/05/26 11:03:33;;;;;;;;;;;16.80;52.30;;;;;;5091968;28;20011;-30
2023/05/26 11:05:59;;;;;;;;;;;16.90;52.50;;;;;;5091895;28;20046;-30
2023/05/26 11:08:25;;;;;;;;;;;17.00;52.20;;;;;;5091711;28;20010;-31
2023/05/26 11:11:04;;;;;;;;;;;17.10;51.70;;;;;;5091794;28;20287;-31
2023/05/26 11:13:39;;;;;;;;;;;17.10;51.50;;;;;;5095947;28;19957;-30
2023/05/26 11:16:17;;;;;;;;;;;17.20;51.40;;;;;;5096033;28;20003;-30
2023/05/26 11:19:03;;;;;;;;;;;17.20;52.30;;;;;;5095709;28;19919;-29
2023/05/26 11:21:29;;;;;;;;;;;17.30;51.00;;;;;;5095655;28;19935;-30
2023/05/26 11:23:56;;;;;;;;;;;17.30;50.40;;;;;;5095454;28;19920;-28
2023/05/26 11:26:22;;;;;;;;;;;17.40;51.10;;;;;;5095506;28;19916;-29
2023/05/26 11:28:48;;;;;;;;;;;17.50;51.80;;;;;;5095483;28;19923;-30
2023/05/26 11:31:14;;;;;;;;;;;17.60;52.00;;;;;;5095329;28;19912;-29
2023/05/26 11:33:41;;;;;;;;;;;17.70;51.40;;;;;;5095474;28;19916;-27
2023/05/26 11:36:11;;;;;;;;;;;17.80;51.50;;;;;;5095636;28;20003;-29
2023/05/26 11:38:37;;;;;;;;;;;17.90;51.10;;;;;;5095334;28;19961;-28
2023/05/26 11:41:06;;;;;;;;;;;18.00;48.20;;;;;;5095181;28;19916;-32
2023/05/26 11:43:32;;;;;;;;;;;18.00;48.80;;;;;;5095252;28;19956;-28
2023/05/26 11:45:59;;;;;;;;;;;18.00;49.10;;;;;;5095156;28;19951;-26
2023/05/26 11:48:29;;;;;;;;;;;18.10;49.70;;;;;;5095023;28;19916;-26
2023/05/26 11:50:55;;;;;;;;;;;18.20;49.60;;;;;;5095009;28;19999;-31
2023/05/26 11:53:21;;;;;;;;;;;18.30;49.00;;;;;;5095141;28;19955;-28
2023/05/26 11:55:46;;;;;;;;;;;18.30;48.30;;;;;;5095098;28;19912;-29
2023/05/26 11:58:13;;;;;;;;;;;18.20;48.80;;;;;;5094937;28;20459;-26
2023/05/26 12:00:38;;;;;;;;;;;18.20;49.50;;;;;;5094992;28;19912;-31
2023/05/26 12:03:04;;;;;;;;;;;18.30;50.10;;;;;;5094788;28;19965;-30
2023/05/26 12:05:30;;;;;;;;;;;18.40;50.40;;;;;;5076889;28;19912;-33
2023/05/26 12:08:02;;;;;;;;;;;18.50;49.10;;;;;;5094759;28;19965;-34
2023/05/26 12:10:28;;;;;;;;;;;18.60;49.30;;;;;;5094857;28;20406;-29
2023/05/26 12:12:54;;;;;;;;;;;18.50;49.30;;;;;;5094642;28;20002;-34
2023/05/26 12:15:20;;;;;;;;;;;18.60;49.80;;;;;;5094632;28;19912;-29
2023/05/26 12:17:46;;;;;;;;;;;18.80;49.90;;;;;;5094529;28;19912;-29
2023/05/26 12:20:16;;;;;;;;;;;18.90;50.30;;;;;;5094623;28;20275;-29
2023/05/26 12:22:42;;;;;;;;;;;19.00;50.40;;;;;;5093953;28;19912;-27
2023/05/26 12:25:07;;;;;;;;;;;19.10;50.00;;;;;;5094546;28;19920;-29
2023/05/26 12:27:37;;;;;;;;;;;19.20;50.20;;;;;;5094382;28;19923;-26
2023/05/26 12:30:18;;;;;;;;;;;19.30;47.60;;;;;;5094412;28;19912;-27
2023/05/26 12:32:43;;;;;;;;;;;19.30;48.00;;;;;;5094264;28;19912;-30
2023/05/26 12:35:09;;;;;;;;;;;19.30;48.90;;;;;;5094555;28;20272;-30
2023/05/26 12:37:34;;;;;;;;;;;19.40;48.20;;;;;;5094149;28;19922;-30
2023/05/26 12:40:01;;;;;;;;;;;19.40;48.30;;;;;;5094439;28;20248;-26
2023/05/26 12:42:26;;;;;;;;;;;19.50;48.10;;;;;;5094073;28;19912;-26
2023/05/26 12:44:52;;;;;;;;;;;19.50;47.90;;;;;;5093870;28;20334;-27
2023/05/26 12:47:17;;;;;;;;;;;19.60;47.10;;;;;;5094248;28;19960;-28
2023/05/26 12:49:43;;;;;;;;;;;19.50;48.10;;;;;;5093974;28;19912;-26
2023/05/26 12:52:08;;;;;;;;;;;19.60;47.60;;;;;;5093823;28;19962;-26
2023/05/26 12:54:33;;;;;;;;;;;19.70;47.40;;;;;;5093779;28;19918;-28
2023/05/26 12:57:00;;;;;;;;;;;19.80;47.00;;;;;;5093841;28;19919;-30
2023/05/26 12:59:25;;;;;;;;;;;19.80;47.50;;;;;;5093768;28;20348;-28
2023/05/26 13:01:50;;;;;;;;;;;19.90;48.00;;;;;;5093701;28;19963;-29
2023/05/26 13:04:16;;;;;;;;;;;20.00;48.30;;;;;;5093819;28;19960;-28
2023/05/26 13:06:42;;;;;;;;;;;20.20;48.80;;;;;;5093596;28;20022;-29
2023/05/26 13:09:09;;;;;;;;;;;20.30;47.90;;;;;;5093838;28;19912;-30
2023/05/26 13:11:35;;;;;;;;;;;20.40;47.90;;;;;;5093478;28;20399;-28
2023/05/26 13:14:00;;;;;;;;;;;20.40;47.70;;;;;;5075145;28;19916;-33
2023/05/26 13:16:26;;;;;;;;;;;20.50;47.10;;;;;;5093521;28;20413;-31
2023/05/26 13:18:52;;;;;;;;;;;20.50;47.00;;;;;;5093509;28;20008;-29
2023/05/26 13:21:17;;;;;;;;;;;20.50;47.10;;;;;;5093622;28;19919;-29
2023/05/26 13:23:42;;;;;;;;;;;20.50;46.90;;;;;;5093221;28;19928;-35
2023/05/26 13:26:08;;;;;;;;;;;20.60;47.20;;;;;;5093392;28;19919;-28
2023/05/26 13:28:33;;;;;;;;;;;20.70;46.90;;;;;;5093222;28;20387;-27
2023/05/26 13:30:59;;;;;;;;;;;20.80;45.90;;;;;;5093278;28;20003;-26
2023/05/26 13:33:27;;;;;;;;;;;20.70;45.70;;;;;;5092402;28;20418;-27
2023/05/26 13:35:52;;;;;;;;;;;20.80;45.40;;;;;;5092458;28;19912;-27
2023/05/26 13:38:18;;;;;;;;;;;20.80;45.70;;;;;;5093048;28;19951;-27
2023/05/26 13:40:43;;;;;;;;;;;20.90;46.10;;;;;;5092983;28;19915;-27
2023/05/26 13:43:09;;;;;;;;;;;21.00;45.80;;;;;;5092948;28;19918;-27
2023/05/26 13:45:34;;;;;;;;;;;21.00;45.90;;;;;;5092845;28;19912;-30
2023/05/26 13:48:00;;;;;;;;;;;21.10;45.70;;;;;;5074554;28;20391;-30
2023/05/26 13:50:26;;;;;;;;;;;21.20;44.80;;;;;;5092781;28;19913;-29
2023/05/26 13:52:52;;;;;;;;;;;21.10;44.60;;;;;;5092614;28;20308;-30
2023/05/26 13:55:17;;;;;;;;;;;21.10;44.90;;;;;;5092656;28;19959;-28
2023/05/26 13:57:43;;;;;;;;;;;21.10;44.70;;;;;;5092631;28;19999;-32
2023/05/26 14:00:09;;;;;;;;;;;21.20;44.90;;;;;;5092592;28;19942;-32
2023/05/26 14:02:35;;;;;;;;;;;21.30;45.40;;;;;;5093085;28;19912;-31
2023/05/26 14:05:01;;;;;;;;;;;21.40;44.80;;;;;;5092410;28;20308;-28
2023/05/26 14:07:26;;;;;;;;;;;21.40;44.70;;;;;;5092354;28;20304;-28
2023/05/26 14:09:52;;;;;;;;;;;21.40;44.50;;;;;;5092436;28;20387;-26
2023/05/26 14:12:17;;;;;;;;;;;21.50;45.30;;;;;;5092240;28;20287;-30
2023/05/26 14:14:43;;;;;;;;;;;21.70;45.50;;;;;;5092436;28;19939;-27
2023/05/26 14:17:09;;;;;;;;;;;21.80;44.90;;;;;;5092253;28;19919;-30